sensor_id;sensor_type;location;lat;lon;timestamp;P1;durP1;ratioP1;P2;durP2;ratioP2
35847;SDS011;22332;51.954;20.118;2023-11-21T00:01:29;29.10;;;16.00;;
35847;SDS011;22332;51.954;20.118;2023-11-21T00:04:35;29.10;;;15.70;;
35847;SDS011;22332;51.954;20.118;2023-11-21T00:07:43;28.00;;;14.70;;
35847;SDS011;22332;51.954;20.118;2023-11-21T00:10:49;29.70;;;16.50;;
35847;SDS011;22332;51.954;20.118;2023-11-21T00:13:54;28.90;;;14.80;;
35847;SDS011;22332;51.954;20.118;2023-11-21T00:17:00;35.90;;;17.90;;
35847;SDS011;22332;51.954;20.118;2023-11-21T00:20:07;36.20;;;19.10;;
35847;SDS011;22332;51.954;20.118;2023-11-21T00:23:15;36.40;;;19.10;;
35847;SDS011;22332;51.954;20.118;2023-11-21T00:26:20;34.10;;;18.00;;
35847;SDS011;22332;51.954;20.118;2023-11-21T00:32:37;30.30;;;16.40;;
35847;SDS011;22332;51.954;20.118;2023-11-21T00:35:43;31.30;;;16.40;;
35847;SDS011;22332;51.954;20.118;2023-11-21T00:38:49;33.40;;;16.00;;
35847;SDS011;22332;51.954;20.118;2023-11-21T00:41:54;33.60;;;16.50;;
35847;SDS011;22332;51.954;20.118;2023-11-21T00:45:01;33.20;;;16.10;;
35847;SDS011;22332;51.954;20.118;2023-11-21T00:48:07;32.70;;;16.50;;
35847;SDS011;22332;51.954;20.118;2023-11-21T00:51:13;31.20;;;16.60;;
35847;SDS011;22332;51.954;20.118;2023-11-21T00:54:18;29.30;;;15.90;;
35847;SDS011;22332;51.954;20.118;2023-11-21T00:57:24;28.20;;;15.80;;
35847;SDS011;22332;51.954;20.118;2023-11-21T01:00:30;30.50;;;17.00;;
35847;SDS011;22332;51.954;20.118;2023-11-21T01:03:35;25.70;;;14.50;;
35847;SDS011;22332;51.954;20.118;2023-11-21T01:06:41;26.20;;;14.70;;
35847;SDS011;22332;51.954;20.118;2023-11-21T01:09:48;32.10;;;16.40;;
35847;SDS011;22332;51.954;20.118;2023-11-21T01:12:53;30.60;;;14.80;;
35847;SDS011;22332;51.954;20.118;2023-11-21T01:16:00;29.20;;;15.30;;
35847;SDS011;22332;51.954;20.118;2023-11-21T01:19:06;31.00;;;16.40;;
35847;SDS011;22332;51.954;20.118;2023-11-21T01:22:12;31.70;;;16.10;;
35847;SDS011;22332;51.954;20.118;2023-11-21T01:25:21;26.30;;;14.10;;
35847;SDS011;22332;51.954;20.118;2023-11-21T01:28:26;29.70;;;16.20;;
35847;SDS011;22332;51.954;20.118;2023-11-21T01:31:32;28.70;;;16.00;;
35847;SDS011;22332;51.954;20.118;2023-11-21T01:34:37;31.60;;;14.60;;
35847;SDS011;22332;51.954;20.118;2023-11-21T01:37:43;28.50;;;14.60;;
35847;SDS011;22332;51.954;20.118;2023-11-21T01:40:52;29.70;;;14.50;;
35847;SDS011;22332;51.954;20.118;2023-11-21T01:43:57;29.40;;;15.40;;
35847;SDS011;22332;51.954;20.118;2023-11-21T01:47:03;30.00;;;15.50;;
35847;SDS011;22332;51.954;20.118;2023-11-21T01:50:10;33.50;;;16.30;;
35847;SDS011;22332;51.954;20.118;2023-11-21T01:53:19;30.90;;;16.20;;
35847;SDS011;22332;51.954;20.118;2023-11-21T01:56:26;30.00;;;15.10;;
35847;SDS011;22332;51.954;20.118;2023-11-21T01:59:35;28.60;;;15.60;;
35847;SDS011;22332;51.954;20.118;2023-11-21T02:02:41;28.40;;;15.20;;
35847;SDS011;22332;51.954;20.118;2023-11-21T02:05:49;29.80;;;15.60;;
35847;SDS011;22332;51.954;20.118;2023-11-21T02:08:56;32.00;;;15.40;;
35847;SDS011;22332;51.954;20.118;2023-11-21T02:12:04;29.40;;;14.40;;
35847;SDS011;22332;51.954;20.118;2023-11-21T02:15:11;27.20;;;13.70;;
35847;SDS011;22332;51.954;20.118;2023-11-21T02:18:18;26.80;;;14.70;;
35847;SDS011;22332;51.954;20.118;2023-11-21T02:21:25;31.00;;;16.20;;
35847;SDS011;22332;51.954;20.118;2023-11-21T02:24:33;30.40;;;16.00;;
35847;SDS011;22332;51.954;20.118;2023-11-21T02:27:39;31.90;;;17.50;;
35847;SDS011;22332;51.954;20.118;2023-11-21T02:30:46;30.70;;;15.10;;
35847;SDS011;22332;51.954;20.118;2023-11-21T02:33:58;29.00;;;16.80;;
35847;SDS011;22332;51.954;20.118;2023-11-21T02:37:04;28.30;;;14.90;;
35847;SDS011;22332;51.954;20.118;2023-11-21T02:40:10;26.80;;;15.20;;
35847;SDS011;22332;51.954;20.118;2023-11-21T02:43:20;26.30;;;15.00;;
35847;SDS011;22332;51.954;20.118;2023-11-21T02:46:26;27.20;;;15.50;;
35847;SDS011;22332;51.954;20.118;2023-11-21T02:49:32;25.90;;;14.00;;
35847;SDS011;22332;51.954;20.118;2023-11-21T02:52:38;26.10;;;14.70;;
35847;SDS011;22332;51.954;20.118;2023-11-21T02:55:44;29.30;;;15.60;;
35847;SDS011;22332;51.954;20.118;2023-11-21T02:58:50;27.70;;;15.20;;
35847;SDS011;22332;51.954;20.118;2023-11-21T03:01:55;26.10;;;14.60;;
35847;SDS011;22332;51.954;20.118;2023-11-21T03:05:01;27.50;;;14.60;;
35847;SDS011;22332;51.954;20.118;2023-11-21T03:08:07;25.60;;;13.80;;
35847;SDS011;22332;51.954;20.118;2023-11-21T03:11:13;20.50;;;12.20;;
35847;SDS011;22332;51.954;20.118;2023-11-21T03:14:19;20.80;;;11.20;;
35847;SDS011;22332;51.954;20.118;2023-11-21T03:17:24;24.20;;;13.00;;
35847;SDS011;22332;51.954;20.118;2023-11-21T03:20:30;19.90;;;12.10;;
35847;SDS011;22332;51.954;20.118;2023-11-21T03:23:35;18.40;;;11.00;;
35847;SDS011;22332;51.954;20.118;2023-11-21T03:26:41;18.60;;;10.40;;
35847;SDS011;22332;51.954;20.118;2023-11-21T03:29:48;19.20;;;11.00;;
35847;SDS011;22332;51.954;20.118;2023-11-21T03:32:54;16.60;;;10.60;;
35847;SDS011;22332;51.954;20.118;2023-11-21T03:35:59;19.30;;;10.00;;
35847;SDS011;22332;51.954;20.118;2023-11-21T03:39:06;15.60;;;9.10;;
35847;SDS011;22332;51.954;20.118;2023-11-21T03:42:12;14.80;;;8.70;;
35847;SDS011;22332;51.954;20.118;2023-11-21T03:45:17;15.90;;;9.80;;
35847;SDS011;22332;51.954;20.118;2023-11-21T03:48:24;15.60;;;9.20;;
35847;SDS011;22332;51.954;20.118;2023-11-21T03:51:29;15.60;;;8.90;;
35847;SDS011;22332;51.954;20.118;2023-11-21T03:54:35;15.80;;;8.70;;
35847;SDS011;22332;51.954;20.118;2023-11-21T03:57:40;15.40;;;9.20;;
35847;SDS011;22332;51.954;20.118;2023-11-21T04:00:46;15.50;;;9.30;;
35847;SDS011;22332;51.954;20.118;2023-11-21T04:03:52;14.80;;;9.10;;
35847;SDS011;22332;51.954;20.118;2023-11-21T04:06:58;14.00;;;8.70;;
35847;SDS011;22332;51.954;20.118;2023-11-21T04:10:04;15.80;;;8.50;;
35847;SDS011;22332;51.954;20.118;2023-11-21T04:13:11;14.60;;;8.30;;
35847;SDS011;22332;51.954;20.118;2023-11-21T04:16:17;15.40;;;8.80;;
35847;SDS011;22332;51.954;20.118;2023-11-21T04:19:22;17.00;;;9.80;;
35847;SDS011;22332;51.954;20.118;2023-11-21T04:22:28;16.40;;;9.90;;
35847;SDS011;22332;51.954;20.118;2023-11-21T04:25:34;17.90;;;10.00;;
35847;SDS011;22332;51.954;20.118;2023-11-21T04:28:39;20.00;;;10.70;;
35847;SDS011;22332;51.954;20.118;2023-11-21T04:31:45;18.10;;;10.20;;
35847;SDS011;22332;51.954;20.118;2023-11-21T04:34:51;17.60;;;10.70;;
35847;SDS011;22332;51.954;20.118;2023-11-21T04:37:57;18.40;;;10.00;;
35847;SDS011;22332;51.954;20.118;2023-11-21T04:41:02;16.20;;;10.40;;
35847;SDS011;22332;51.954;20.118;2023-11-21T04:44:08;18.60;;;9.50;;
35847;SDS011;22332;51.954;20.118;2023-11-21T04:47:14;16.30;;;9.30;;
35847;SDS011;22332;51.954;20.118;2023-11-21T04:50:20;15.70;;;8.60;;
35847;SDS011;22332;51.954;20.118;2023-11-21T04:53:26;17.30;;;9.60;;
35847;SDS011;22332;51.954;20.118;2023-11-21T04:56:31;16.80;;;10.50;;
35847;SDS011;22332;51.954;20.118;2023-11-21T04:59:37;18.90;;;10.90;;
35847;SDS011;22332;51.954;20.118;2023-11-21T05:02:43;16.20;;;10.00;;
35847;SDS011;22332;51.954;20.118;2023-11-21T05:05:48;16.60;;;10.40;;
35847;SDS011;22332;51.954;20.118;2023-11-21T05:08:54;15.70;;;9.30;;
35847;SDS011;22332;51.954;20.118;2023-11-21T05:11:59;17.70;;;10.60;;
35847;SDS011;22332;51.954;20.118;2023-11-21T05:15:06;16.70;;;10.00;;
35847;SDS011;22332;51.954;20.118;2023-11-21T05:18:13;18.70;;;11.30;;
35847;SDS011;22332;51.954;20.118;2023-11-21T05:21:18;17.10;;;10.80;;
35847;SDS011;22332;51.954;20.118;2023-11-21T05:24:24;17.10;;;11.00;;
35847;SDS011;22332;51.954;20.118;2023-11-21T05:27:30;16.40;;;11.40;;
35847;SDS011;22332;51.954;20.118;2023-11-21T05:30:36;17.40;;;10.90;;
35847;SDS011;22332;51.954;20.118;2023-11-21T05:33:42;16.70;;;11.10;;
35847;SDS011;22332;51.954;20.118;2023-11-21T05:36:48;17.60;;;11.60;;
35847;SDS011;22332;51.954;20.118;2023-11-21T05:39:53;20.90;;;11.10;;
35847;SDS011;22332;51.954;20.118;2023-11-21T05:42:59;18.70;;;11.50;;
35847;SDS011;22332;51.954;20.118;2023-11-21T05:46:05;17.60;;;11.30;;
35847;SDS011;22332;51.954;20.118;2023-11-21T05:49:17;18.80;;;11.60;;
35847;SDS011;22332;51.954;20.118;2023-11-21T05:52:24;17.80;;;11.70;;
35847;SDS011;22332;51.954;20.118;2023-11-21T05:55:29;18.10;;;12.00;;
35847;SDS011;22332;51.954;20.118;2023-11-21T05:58:35;17.30;;;11.30;;
35847;SDS011;22332;51.954;20.118;2023-11-21T06:01:41;16.40;;;11.00;;
35847;SDS011;22332;51.954;20.118;2023-11-21T06:04:48;16.50;;;10.70;;
35847;SDS011;22332;51.954;20.118;2023-11-21T06:07:55;16.50;;;10.50;;
35847;SDS011;22332;51.954;20.118;2023-11-21T06:11:01;15.60;;;10.20;;
35847;SDS011;22332;51.954;20.118;2023-11-21T06:14:07;14.90;;;9.70;;
35847;SDS011;22332;51.954;20.118;2023-11-21T06:17:13;16.00;;;10.50;;
35847;SDS011;22332;51.954;20.118;2023-11-21T06:20:20;14.30;;;9.30;;
35847;SDS011;22332;51.954;20.118;2023-11-21T06:23:26;14.40;;;9.80;;
35847;SDS011;22332;51.954;20.118;2023-11-21T06:26:31;15.20;;;9.50;;
35847;SDS011;22332;51.954;20.118;2023-11-21T06:29:37;13.70;;;9.70;;
35847;SDS011;22332;51.954;20.118;2023-11-21T06:32:45;14.70;;;10.20;;
35847;SDS011;22332;51.954;20.118;2023-11-21T06:35:51;15.80;;;10.10;;
35847;SDS011;22332;51.954;20.118;2023-11-21T06:38:56;17.80;;;11.10;;
35847;SDS011;22332;51.954;20.118;2023-11-21T06:42:02;18.20;;;12.00;;
35847;SDS011;22332;51.954;20.118;2023-11-21T06:45:09;14.30;;;9.20;;
35847;SDS011;22332;51.954;20.118;2023-11-21T06:48:14;16.90;;;10.70;;
35847;SDS011;22332;51.954;20.118;2023-11-21T06:51:20;14.70;;;10.70;;
35847;SDS011;22332;51.954;20.118;2023-11-21T06:54:26;15.20;;;10.20;;
35847;SDS011;22332;51.954;20.118;2023-11-21T06:57:32;17.90;;;11.40;;
35847;SDS011;22332;51.954;20.118;2023-11-21T07:00:37;19.60;;;12.10;;
35847;SDS011;22332;51.954;20.118;2023-11-21T07:03:43;16.60;;;11.00;;
35847;SDS011;22332;51.954;20.118;2023-11-21T07:06:48;14.90;;;10.70;;
35847;SDS011;22332;51.954;20.118;2023-11-21T07:09:54;17.60;;;11.00;;
35847;SDS011;22332;51.954;20.118;2023-11-21T07:12:59;15.70;;;10.20;;
35847;SDS011;22332;51.954;20.118;2023-11-21T07:16:05;11.70;;;8.20;;
35847;SDS011;22332;51.954;20.118;2023-11-21T07:19:13;14.10;;;9.80;;
35847;SDS011;22332;51.954;20.118;2023-11-21T07:22:19;16.30;;;9.80;;
35847;SDS011;22332;51.954;20.118;2023-11-21T07:25:25;14.70;;;10.60;;
35847;SDS011;22332;51.954;20.118;2023-11-21T07:28:30;17.70;;;10.40;;
35847;SDS011;22332;51.954;20.118;2023-11-21T07:31:36;17.60;;;11.80;;
35847;SDS011;22332;51.954;20.118;2023-11-21T07:34:44;17.60;;;11.50;;
35847;SDS011;22332;51.954;20.118;2023-11-21T07:37:49;18.10;;;11.70;;
35847;SDS011;22332;51.954;20.118;2023-11-21T07:40:55;18.20;;;11.50;;
35847;SDS011;22332;51.954;20.118;2023-11-21T07:44:00;19.20;;;13.20;;
35847;SDS011;22332;51.954;20.118;2023-11-21T07:47:06;17.70;;;11.10;;
35847;SDS011;22332;51.954;20.118;2023-11-21T07:50:12;15.40;;;10.50;;
35847;SDS011;22332;51.954;20.118;2023-11-21T07:53:17;18.10;;;12.00;;
35847;SDS011;22332;51.954;20.118;2023-11-21T07:56:23;17.20;;;11.90;;
35847;SDS011;22332;51.954;20.118;2023-11-21T07:59:28;18.30;;;11.30;;
35847;SDS011;22332;51.954;20.118;2023-11-21T08:02:34;17.60;;;11.90;;
35847;SDS011;22332;51.954;20.118;2023-11-21T08:05:40;17.10;;;11.60;;
35847;SDS011;22332;51.954;20.118;2023-11-21T08:08:45;19.30;;;12.30;;
35847;SDS011;22332;51.954;20.118;2023-11-21T08:11:51;18.30;;;11.30;;
35847;SDS011;22332;51.954;20.118;2023-11-21T08:14:57;16.90;;;11.30;;
35847;SDS011;22332;51.954;20.118;2023-11-21T08:18:03;19.30;;;13.00;;
35847;SDS011;22332;51.954;20.118;2023-11-21T08:21:11;18.30;;;12.10;;
35847;SDS011;22332;51.954;20.118;2023-11-21T08:24:17;17.10;;;10.50;;
35847;SDS011;22332;51.954;20.118;2023-11-21T08:27:23;19.20;;;11.60;;
35847;SDS011;22332;51.954;20.118;2023-11-21T08:30:28;14.10;;;9.50;;
35847;SDS011;22332;51.954;20.118;2023-11-21T08:33:35;14.00;;;10.00;;
35847;SDS011;22332;51.954;20.118;2023-11-21T08:36:42;17.70;;;11.40;;
35847;SDS011;22332;51.954;20.118;2023-11-21T08:39:48;14.50;;;10.20;;
35847;SDS011;22332;51.954;20.118;2023-11-21T08:42:55;18.30;;;11.60;;
35847;SDS011;22332;51.954;20.118;2023-11-21T08:46:01;16.60;;;11.40;;
35847;SDS011;22332;51.954;20.118;2023-11-21T08:49:07;14.40;;;10.40;;
35847;SDS011;22332;51.954;20.118;2023-11-21T08:52:12;15.80;;;10.70;;
35847;SDS011;22332;51.954;20.118;2023-11-21T08:55:19;18.40;;;10.80;;
35847;SDS011;22332;51.954;20.118;2023-11-21T08:58:27;17.30;;;10.80;;
35847;SDS011;22332;51.954;20.118;2023-11-21T09:01:57;16.10;;;9.70;;
35847;SDS011;22332;51.954;20.118;2023-11-21T09:05:12;13.90;;;9.20;;
35847;SDS011;22332;51.954;20.118;2023-11-21T09:08:19;12.80;;;8.90;;
35847;SDS011;22332;51.954;20.118;2023-11-21T09:11:25;13.70;;;9.00;;
35847;SDS011;22332;51.954;20.118;2023-11-21T09:14:36;22.40;;;11.30;;
35847;SDS011;22332;51.954;20.118;2023-11-21T09:17:42;28.10;;;13.30;;
35847;SDS011;22332;51.954;20.118;2023-11-21T09:20:47;23.70;;;12.00;;
35847;SDS011;22332;51.954;20.118;2023-11-21T09:23:53;18.50;;;10.80;;
35847;SDS011;22332;51.954;20.118;2023-11-21T09:26:58;11.70;;;8.10;;
35847;SDS011;22332;51.954;20.118;2023-11-21T09:30:05;10.90;;;7.80;;
35847;SDS011;22332;51.954;20.118;2023-11-21T09:33:13;10.60;;;7.70;;
35847;SDS011;22332;51.954;20.118;2023-11-21T09:36:18;12.40;;;8.30;;
35847;SDS011;22332;51.954;20.118;2023-11-21T09:39:30;13.70;;;8.70;;
35847;SDS011;22332;51.954;20.118;2023-11-21T09:42:38;12.80;;;7.40;;
35847;SDS011;22332;51.954;20.118;2023-11-21T09:45:51;9.30;;;6.70;;
35847;SDS011;22332;51.954;20.118;2023-11-21T09:49:03;10.80;;;7.10;;
35847;SDS011;22332;51.954;20.118;2023-11-21T09:52:18;11.90;;;7.80;;
35847;SDS011;22332;51.954;20.118;2023-11-21T09:55:29;10.20;;;7.60;;
35847;SDS011;22332;51.954;20.118;2023-11-21T09:58:38;10.90;;;7.80;;
35847;SDS011;22332;51.954;20.118;2023-11-21T10:01:44;12.70;;;8.90;;
35847;SDS011;22332;51.954;20.118;2023-11-21T10:04:50;12.80;;;8.70;;
35847;SDS011;22332;51.954;20.118;2023-11-21T10:07:55;12.10;;;7.40;;
35847;SDS011;22332;51.954;20.118;2023-11-21T10:11:01;18.60;;;8.70;;
35847;SDS011;22332;51.954;20.118;2023-11-21T10:14:10;13.30;;;8.30;;
35847;SDS011;22332;51.954;20.118;2023-11-21T10:17:16;11.80;;;8.00;;
35847;SDS011;22332;51.954;20.118;2023-11-21T10:20:23;11.00;;;7.50;;
35847;SDS011;22332;51.954;20.118;2023-11-21T10:23:29;14.00;;;7.90;;
35847;SDS011;22332;51.954;20.118;2023-11-21T10:26:35;14.30;;;8.50;;
35847;SDS011;22332;51.954;20.118;2023-11-21T10:29:40;10.90;;;7.70;;
35847;SDS011;22332;51.954;20.118;2023-11-21T10:32:47;12.90;;;8.60;;
35847;SDS011;22332;51.954;20.118;2023-11-21T10:35:53;10.60;;;7.30;;
35847;SDS011;22332;51.954;20.118;2023-11-21T10:38:58;11.90;;;7.90;;
35847;SDS011;22332;51.954;20.118;2023-11-21T10:42:07;10.70;;;7.30;;
35847;SDS011;22332;51.954;20.118;2023-11-21T10:45:13;10.10;;;7.10;;
35847;SDS011;22332;51.954;20.118;2023-11-21T10:48:19;11.90;;;8.00;;
35847;SDS011;22332;51.954;20.118;2023-11-21T10:51:26;11.40;;;7.60;;
35847;SDS011;22332;51.954;20.118;2023-11-21T10:54:31;11.60;;;7.70;;
35847;SDS011;22332;51.954;20.118;2023-11-21T10:57:38;13.10;;;8.20;;
35847;SDS011;22332;51.954;20.118;2023-11-21T11:00:44;12.30;;;8.10;;
35847;SDS011;22332;51.954;20.118;2023-11-21T11:03:50;14.20;;;9.50;;
35847;SDS011;22332;51.954;20.118;2023-11-21T11:06:58;15.30;;;10.60;;
35847;SDS011;22332;51.954;20.118;2023-11-21T11:10:09;14.80;;;10.40;;
35847;SDS011;22332;51.954;20.118;2023-11-21T11:13:17;18.30;;;11.10;;
35847;SDS011;22332;51.954;20.118;2023-11-21T11:16:23;17.20;;;11.00;;
35847;SDS011;22332;51.954;20.118;2023-11-21T11:19:30;17.10;;;10.70;;
35847;SDS011;22332;51.954;20.118;2023-11-21T11:22:37;17.50;;;11.60;;
35847;SDS011;22332;51.954;20.118;2023-11-21T11:25:57;17.80;;;11.50;;
35847;SDS011;22332;51.954;20.118;2023-11-21T11:29:14;18.70;;;11.70;;
35847;SDS011;22332;51.954;20.118;2023-11-21T11:32:30;17.60;;;10.80;;
35847;SDS011;22332;51.954;20.118;2023-11-21T11:35:50;19.30;;;11.80;;
35847;SDS011;22332;51.954;20.118;2023-11-21T11:39:01;19.40;;;12.10;;
35847;SDS011;22332;51.954;20.118;2023-11-21T11:42:08;20.00;;;13.10;;
35847;SDS011;22332;51.954;20.118;2023-11-21T11:45:19;18.90;;;12.50;;
35847;SDS011;22332;51.954;20.118;2023-11-21T11:48:25;21.60;;;14.40;;
35847;SDS011;22332;51.954;20.118;2023-11-21T11:51:30;21.80;;;14.10;;
35847;SDS011;22332;51.954;20.118;2023-11-21T11:54:38;20.90;;;12.50;;
35847;SDS011;22332;51.954;20.118;2023-11-21T11:57:44;23.00;;;14.30;;
35847;SDS011;22332;51.954;20.118;2023-11-21T12:00:51;23.20;;;14.80;;
35847;SDS011;22332;51.954;20.118;2023-11-21T12:07:44;25.50;;;14.20;;
35847;SDS011;22332;51.954;20.118;2023-11-21T12:10:51;22.20;;;13.10;;
35847;SDS011;22332;51.954;20.118;2023-11-21T12:13:57;22.40;;;14.60;;
35847;SDS011;22332;51.954;20.118;2023-11-21T12:17:04;25.80;;;15.90;;
35847;SDS011;22332;51.954;20.118;2023-11-21T12:20:12;26.20;;;16.80;;
35847;SDS011;22332;51.954;20.118;2023-11-21T12:23:20;23.30;;;14.80;;
35847;SDS011;22332;51.954;20.118;2023-11-21T12:26:25;23.60;;;15.10;;
35847;SDS011;22332;51.954;20.118;2023-11-21T12:29:31;24.10;;;14.90;;
35847;SDS011;22332;51.954;20.118;2023-11-21T12:32:37;22.60;;;15.30;;
35847;SDS011;22332;51.954;20.118;2023-11-21T12:35:42;21.40;;;14.30;;
35847;SDS011;22332;51.954;20.118;2023-11-21T12:38:48;20.50;;;14.30;;
35847;SDS011;22332;51.954;20.118;2023-11-21T12:41:54;25.40;;;14.60;;
35847;SDS011;22332;51.954;20.118;2023-11-21T12:45:19;23.60;;;14.90;;
35847;SDS011;22332;51.954;20.118;2023-11-21T12:48:28;22.10;;;13.20;;
35847;SDS011;22332;51.954;20.118;2023-11-21T12:51:35;22.80;;;14.60;;
35847;SDS011;22332;51.954;20.118;2023-11-21T12:54:41;27.30;;;15.30;;
35847;SDS011;22332;51.954;20.118;2023-11-21T12:57:52;24.20;;;16.10;;
35847;SDS011;22332;51.954;20.118;2023-11-21T13:01:00;25.00;;;14.70;;
35847;SDS011;22332;51.954;20.118;2023-11-21T13:04:07;25.60;;;15.30;;
35847;SDS011;22332;51.954;20.118;2023-11-21T13:07:14;25.10;;;15.00;;
35847;SDS011;22332;51.954;20.118;2023-11-21T13:10:20;23.60;;;15.50;;
35847;SDS011;22332;51.954;20.118;2023-11-21T13:13:31;23.20;;;15.10;;
35847;SDS011;22332;51.954;20.118;2023-11-21T13:16:37;25.10;;;15.40;;
35847;SDS011;22332;51.954;20.118;2023-11-21T13:19:48;26.70;;;15.60;;
35847;SDS011;22332;51.954;20.118;2023-11-21T13:22:55;25.30;;;15.20;;
35847;SDS011;22332;51.954;20.118;2023-11-21T13:26:02;21.30;;;12.80;;
35847;SDS011;22332;51.954;20.118;2023-11-21T13:29:07;26.80;;;16.10;;
35847;SDS011;22332;51.954;20.118;2023-11-21T13:32:15;25.20;;;15.20;;
35847;SDS011;22332;51.954;20.118;2023-11-21T13:35:24;24.10;;;14.90;;
35847;SDS011;22332;51.954;20.118;2023-11-21T13:38:37;28.20;;;16.30;;
35847;SDS011;22332;51.954;20.118;2023-11-21T13:41:45;27.20;;;15.50;;
35847;SDS011;22332;51.954;20.118;2023-11-21T13:44:59;27.20;;;16.50;;
35847;SDS011;22332;51.954;20.118;2023-11-21T13:48:06;28.80;;;16.20;;
35847;SDS011;22332;51.954;20.118;2023-11-21T13:51:13;32.50;;;16.70;;
35847;SDS011;22332;51.954;20.118;2023-11-21T13:54:20;37.10;;;19.80;;
35847;SDS011;22332;51.954;20.118;2023-11-21T13:57:27;36.60;;;19.50;;
35847;SDS011;22332;51.954;20.118;2023-11-21T14:00:33;29.80;;;17.10;;
35847;SDS011;22332;51.954;20.118;2023-11-21T14:03:47;31.40;;;16.40;;
35847;SDS011;22332;51.954;20.118;2023-11-21T14:06:59;29.00;;;16.90;;
35847;SDS011;22332;51.954;20.118;2023-11-21T14:10:20;25.00;;;15.10;;
35847;SDS011;22332;51.954;20.118;2023-11-21T14:13:27;29.90;;;17.20;;
35847;SDS011;22332;51.954;20.118;2023-11-21T14:16:32;30.80;;;17.80;;
35847;SDS011;22332;51.954;20.118;2023-11-21T14:19:38;31.40;;;17.70;;
35847;SDS011;22332;51.954;20.118;2023-11-21T14:22:46;28.80;;;17.50;;
35847;SDS011;22332;51.954;20.118;2023-11-21T14:25:51;30.10;;;17.50;;
35847;SDS011;22332;51.954;20.118;2023-11-21T14:28:57;30.60;;;17.60;;
35847;SDS011;22332;51.954;20.118;2023-11-21T14:32:02;28.00;;;15.90;;
35847;SDS011;22332;51.954;20.118;2023-11-21T14:35:09;27.50;;;14.90;;
35847;SDS011;22332;51.954;20.118;2023-11-21T14:38:14;27.30;;;16.30;;
35847;SDS011;22332;51.954;20.118;2023-11-21T14:41:20;29.50;;;16.90;;
35847;SDS011;22332;51.954;20.118;2023-11-21T14:44:28;23.90;;;14.80;;
35847;SDS011;22332;51.954;20.118;2023-11-21T14:47:38;26.70;;;15.50;;
35847;SDS011;22332;51.954;20.118;2023-11-21T14:50:49;21.30;;;13.70;;
35847;SDS011;22332;51.954;20.118;2023-11-21T14:54:08;24.00;;;14.90;;
35847;SDS011;22332;51.954;20.118;2023-11-21T14:57:14;28.00;;;15.80;;
35847;SDS011;22332;51.954;20.118;2023-11-21T15:00:21;25.70;;;15.30;;
35847;SDS011;22332;51.954;20.118;2023-11-21T15:06:52;24.20;;;14.50;;
35847;SDS011;22332;51.954;20.118;2023-11-21T15:10:01;25.20;;;15.40;;
35847;SDS011;22332;51.954;20.118;2023-11-21T15:13:07;176.90;;;57.10;;
35847;SDS011;22332;51.954;20.118;2023-11-21T15:16:13;36.40;;;19.70;;
35847;SDS011;22332;51.954;20.118;2023-11-21T15:19:19;37.70;;;22.40;;
35847;SDS011;22332;51.954;20.118;2023-11-21T15:22:29;28.20;;;15.60;;
35847;SDS011;22332;51.954;20.118;2023-11-21T15:25:34;28.70;;;16.00;;
35847;SDS011;22332;51.954;20.118;2023-11-21T15:28:40;35.00;;;19.60;;
35847;SDS011;22332;51.954;20.118;2023-11-21T15:31:46;31.20;;;17.50;;
35847;SDS011;22332;51.954;20.118;2023-11-21T15:34:52;50.60;;;28.00;;
35847;SDS011;22332;51.954;20.118;2023-11-21T15:37:57;40.30;;;20.70;;
35847;SDS011;22332;51.954;20.118;2023-11-21T15:41:03;38.00;;;22.10;;
35847;SDS011;22332;51.954;20.118;2023-11-21T15:44:11;33.70;;;22.60;;
35847;SDS011;22332;51.954;20.118;2023-11-21T15:47:17;86.50;;;49.10;;
35847;SDS011;22332;51.954;20.118;2023-11-21T15:50:22;40.50;;;22.10;;
35847;SDS011;22332;51.954;20.118;2023-11-21T15:53:28;32.40;;;17.40;;
35847;SDS011;22332;51.954;20.118;2023-11-21T15:56:34;30.10;;;18.10;;
35847;SDS011;22332;51.954;20.118;2023-11-21T15:59:40;57.40;;;33.60;;
35847;SDS011;22332;51.954;20.118;2023-11-21T16:02:47;32.70;;;18.90;;
35847;SDS011;22332;51.954;20.118;2023-11-21T16:05:53;50.50;;;31.40;;
35847;SDS011;22332;51.954;20.118;2023-11-21T16:08:59;32.10;;;19.80;;
35847;SDS011;22332;51.954;20.118;2023-11-21T16:12:05;27.80;;;17.50;;
35847;SDS011;22332;51.954;20.118;2023-11-21T16:15:25;33.60;;;21.00;;
35847;SDS011;22332;51.954;20.118;2023-11-21T16:18:31;26.00;;;15.90;;
35847;SDS011;22332;51.954;20.118;2023-11-21T16:21:36;34.40;;;18.70;;
35847;SDS011;22332;51.954;20.118;2023-11-21T16:24:42;26.10;;;16.20;;
35847;SDS011;22332;51.954;20.118;2023-11-21T16:27:48;25.50;;;15.10;;
35847;SDS011;22332;51.954;20.118;2023-11-21T16:30:54;29.40;;;16.90;;
35847;SDS011;22332;51.954;20.118;2023-11-21T16:33:59;28.80;;;16.20;;
35847;SDS011;22332;51.954;20.118;2023-11-21T16:37:14;29.90;;;17.90;;
35847;SDS011;22332;51.954;20.118;2023-11-21T16:40:20;28.90;;;17.80;;
35847;SDS011;22332;51.954;20.118;2023-11-21T16:43:26;35.30;;;21.60;;
35847;SDS011;22332;51.954;20.118;2023-11-21T16:46:31;40.60;;;23.70;;
35847;SDS011;22332;51.954;20.118;2023-11-21T16:49:37;37.70;;;21.60;;
35847;SDS011;22332;51.954;20.118;2023-11-21T16:52:45;37.30;;;20.50;;
35847;SDS011;22332;51.954;20.118;2023-11-21T16:55:51;46.30;;;25.60;;
35847;SDS011;22332;51.954;20.118;2023-11-21T16:58:57;43.80;;;22.50;;
35847;SDS011;22332;51.954;20.118;2023-11-21T17:02:02;33.10;;;20.10;;
35847;SDS011;22332;51.954;20.118;2023-11-21T17:05:08;29.40;;;16.50;;
35847;SDS011;22332;51.954;20.118;2023-11-21T17:08:14;34.60;;;18.80;;
35847;SDS011;22332;51.954;20.118;2023-11-21T17:11:20;32.20;;;18.20;;
35847;SDS011;22332;51.954;20.118;2023-11-21T17:14:25;31.30;;;17.30;;
35847;SDS011;22332;51.954;20.118;2023-11-21T17:17:31;30.90;;;18.70;;
35847;SDS011;22332;51.954;20.118;2023-11-21T17:20:37;35.60;;;21.40;;
35847;SDS011;22332;51.954;20.118;2023-11-21T17:23:44;37.90;;;24.00;;
35847;SDS011;22332;51.954;20.118;2023-11-21T17:26:49;34.40;;;20.80;;
35847;SDS011;22332;51.954;20.118;2023-11-21T17:29:55;33.40;;;20.00;;
35847;SDS011;22332;51.954;20.118;2023-11-21T17:33:01;36.10;;;21.20;;
35847;SDS011;22332;51.954;20.118;2023-11-21T17:36:07;33.70;;;17.90;;
35847;SDS011;22332;51.954;20.118;2023-11-21T17:39:16;48.00;;;28.00;;
35847;SDS011;22332;51.954;20.118;2023-11-21T17:42:22;33.70;;;19.40;;
35847;SDS011;22332;51.954;20.118;2023-11-21T17:45:27;48.40;;;28.50;;
35847;SDS011;22332;51.954;20.118;2023-11-21T17:48:33;49.30;;;30.10;;
35847;SDS011;22332;51.954;20.118;2023-11-21T17:51:39;49.00;;;30.70;;
35847;SDS011;22332;51.954;20.118;2023-11-21T17:54:45;41.60;;;24.20;;
35847;SDS011;22332;51.954;20.118;2023-11-21T17:57:50;38.80;;;22.40;;
35847;SDS011;22332;51.954;20.118;2023-11-21T18:00:56;39.30;;;24.30;;
35847;SDS011;22332;51.954;20.118;2023-11-21T18:04:02;34.30;;;21.40;;
35847;SDS011;22332;51.954;20.118;2023-11-21T18:07:08;32.50;;;19.60;;
35847;SDS011;22332;51.954;20.118;2023-11-21T18:10:15;31.00;;;18.80;;